Daan Hoeyberghs

Info Calendar Victories 2018 2017 2016 2015 2014 2013 2012 Team matesComments

Teams INFO: we are currently re-structuring the UCI-rank

Year Div. Team FirstCycling-rank UCI-rank Race days * Wins * Km *
2019 CONT Beat Cycling Club - - - - -
2018 CONT Beat Cycling Club 3467(2p) - 11 - 2070.0
2017 CONT Beobank - Corendon - - 11 - 1822.8
2016 CONT Beobank - Corendon 2872(5p) - 16 - 2266.3
2015 CONT BKCP - Powerplus 1869(20p) - 11 - 1674.2
2014 CONT BKCP - Powerplus 1974(15p) - 17 - 2743.7
2013 CONT BKCP - Powerplus 4375(0p) - 8 - 1024.0
* from UCI races

2018 Results[Display results with winner]

# What Date Pos GC What RaceFC-rank
points
2018-10-13 1.1 One-day race 13.10 DNF 204.6 km Ronde van Zeeland -
2018-10-05 KP One-day race 05.10 DNF 153.6 km Zwevezele Koers -
2018-09-23 1.1 One-day race 23.09 DNF 191.0 km Gooikse Pijl -
2018-09-19 1.1 One-day race 19.09 DNF 191.4 km Omloop van het Houtland -
2018-09-18 KP One-day race 18.09 DNF 175.0 km Textielprijs Vichte -
2018-09-16 1.1 One-day race 16.09 89 185.7 km Grote Prijs Jef Scherens -
2018-09-14 1.1 One-day race 14.09 35 185.8 km Kamp. van Vlaanderen -
2018-09-12 1.12A One-day race 12.09 9 138.0 km Retie -
2018-09-06 KP One-day race 06.09 34 167.0 km Izegem Koers -
2018-09-02 1.1 One-day race 02.09 DNF 206.6 km Antwerp Port Epic -
2018-08-29 1.1 One-day race 29.08 DNF 196.4 km Druivenkoers Overijse -
2018-08-25 1.1 One-day race 25.08 131 187.4 km Omloop Mandel -
2018-08-22 1.1 One-day race 22.08 DNF 191.5 km Veenendaal Classic -
2018-08-21 1.1 One-day race 21.08 DNF 202.7 km GP Stad Zottegem -
2018-08-17 1.CRT One-day race 17.08 27 92.0 km Kortrijk Koerse -
2018-08-11 1.1 One-day race 11.08 DNF 198.0 km KOGA Slag om Norg -
2018-08-06 1.CRT One-day race 06.08 DNF 72.0 km Criterium Heusden-Zolder -
2018-08-05 1.1 One-day race 05.08 89 168.9 km Polynormande -
2018-08-03 1.CRT One-day race 03.08 29 65.0 km Criterium Putte -
2018-07-30 1.CRT One-day race 30.07 15 82.0 km Criterium Aalst -
2018-06-25 NE One-day race 25.06 8 Ronde van Luyksgestel -
2018-06-24 CN Binche 24.06 DNF 223.6 km CN Belgium RR -
2018-06-19 1.1 One-day race 19.06 59 197.7 km Halle - Ingooigem -
2018-06-15 1.1 One-day race 15.06 DNF 197.8 km Dwars door het Hageland -
2018-06-10 1.2 One-day race 10.06 DNF 197.2 km Midden Brabant -
2018-06-09 1.2 One-day race 09.06 DNF 200.0 km Dwaars Vlaamse Ardennen -
2018-06-06 KP One-day race 06.06 32 172.0 km Ruddervoorde Koerse -
2018-06-02 1.1 One-day race 02.06 50 194.1 km Heistse Pijl -
2018-05-29 1.12B One-day race 29.05 17 120.0 km Mol Rauw -
2018-05-26 2.1 Stage race 25.05-26.05 DNF Tour of Estonia -
2018-05-20 1.1 One-day race 20.05 85 174.6 km Grote Prijs Marcel Kint -
2018-05-13 1.2 One-day race 13.05 DNF 193.4 km Ronde v.Noord-Holland -
2018-05-12 1.2 One-day race 12.05 82 201.0 km Ronde van Overijssel -
2018-05-06 KP One-day race 06.05 126 160.0 km Trofee Maarten Wynants -
2018-04-28 1.2 One-day race 28.04 38 197.3 km PWZ Zuidenveld Tour -
2018-04-21 1.2 One-day race 21.04 29 183.5 km Arno Wallaard Mem. 1
2018-03-31 1.1 One-day race 31.03 DNF 195.0 km Volta Limburg Classic -
2018-02-25 CX: C1 Sluitingsprijs 25.02 33 CX - Oostmalle -
2018-02-17 CX: C1 Superprestige 17.02 30 CX - Middelkeke -
2018-02-17 CX: C1 Superprestige 01.10-17.02 25 CX - Superprestige -
2018-02-10 CX: C1 bpost trofee 10.02 DNF CX - Lille -
2018-02-07 CX: C2 Parkcrosss 07.02 19 CX - Maldegem -
2018-01-27 CX: C2 Cyclocross 27.01 9 CX - Rucphen -
2018-01-20 CX: C2 Kasteelcross 20.01 26 CX - Zonnebeke -
2018-01-15 CX: C2 Cyclocross 15.01 24 CX - Otegem -
2018-01-14 CX: CN Koksijde 14.01 26 CX - CN Belgium -
2018-01-07 CX: C1 Soudal Classics 07.01 15 CX - Leuven -
2018-01-01 CX: C2 Grand Prix 01.01 DNF CX - Petange -
2018-05-26 2.1 02.stage 26.05 DNF 173 km Tour of Estonia -
2018-05-25 2.1 01.stage 25.05 15 17 194 km Tour of Estonia 1

Info

Name Daan Hoeyberghs

Nation Belgium

Born24 year, Sep 18th 1994

Victories

Arendonk (2015)
CX - Gieten u23 (2015)
CX - Loenhout u23 (2015)
Geel - Sint Dimpna (2015)